Time;durP1;ratioP1;P1;durP2;ratioP2;P2;SDS_P1;SDS_P2;PMS_P1;PMS_P2;Temp;Humidity;BMP_temperature;BMP_pressure;BME280_temperature;BME280_humidity;BME280_pressure;Samples;Min_cycle;Max_cycle;Signal;HPM_P1;HPM_P2
2023/06/11 00:00:20;;;;;;;2.77;2.57;;;21.20;55.60;;;;;;4959546;28;20296;-70
2023/06/11 00:02:46;;;;;;;4.60;3.50;;;21.20;55.30;;;;;;4960040;28;20212;-71
2023/06/11 00:05:11;;;;;;;7.63;3.10;;;21.10;55.30;;;;;;4957740;28;20197;-70
2023/06/11 00:07:37;;;;;;;3.33;3.03;;;21.20;55.10;;;;;;4959494;28;20209;-71
2023/06/11 00:10:04;;;;;;;4.87;3.50;;;21.30;55.30;;;;;;4960171;28;20576;-70
2023/06/11 00:12:32;;;;;;;3.87;2.93;;;21.20;55.90;;;;;;4959876;28;20220;-70
2023/06/11 00:15:01;;;;;;;3.17;2.77;;;21.10;55.80;;;;;;4959993;28;20236;-70
2023/06/11 00:17:27;;;;;;;4.67;4.13;;;21.10;56.20;;;;;;4957723;28;20220;-70
2023/06/11 00:19:52;;;;;;;3.40;3.10;;;21.00;56.50;;;;;;4959389;28;20286;-70
2023/06/11 00:22:18;;;;;;;5.20;3.03;;;21.00;55.90;;;;;;4959733;28;20208;-70
2023/06/11 00:24:43;;;;;;;5.60;3.23;;;21.00;56.30;;;;;;4958903;28;20228;-69
2023/06/11 00:27:09;;;;;;;3.50;3.13;;;21.00;57.40;;;;;;4956768;28;20796;-70
2023/06/11 00:29:35;;;;;;;3.20;2.90;;;21.10;56.10;;;;;;4958156;28;20210;-70
2023/06/11 00:32:00;;;;;;;5.13;3.10;;;21.00;55.80;;;;;;4956062;28;20980;-70
2023/06/11 00:34:26;;;;;;;3.33;2.80;;;21.00;56.50;;;;;;4953676;28;20336;-69
2023/06/11 00:36:52;;;;;;;4.80;2.67;;;20.90;56.00;;;;;;4959327;28;20276;-70
2023/06/11 00:39:18;;;;;;;3.40;3.10;;;20.80;56.50;;;;;;4958945;28;20217;-68
2023/06/11 00:41:48;;;;;;;3.40;2.60;;;20.80;56.20;;;;;;4956646;28;20211;-69
2023/06/11 00:44:17;;;;;;;3.07;2.60;;;20.60;57.70;;;;;;4958874;28;20227;-70
2023/06/11 00:46:45;;;;;;;4.73;3.33;;;20.60;57.30;;;;;;4959083;28;20842;-69
2023/06/11 00:49:11;;;;;;;3.17;2.87;;;20.60;56.90;;;;;;4957180;28;20204;-69
2023/06/11 00:51:40;;;;;;;3.93;2.60;;;20.60;58.00;;;;;;4957817;28;20217;-68
2023/06/11 00:54:05;;;;;;;4.20;3.00;;;20.60;56.70;;;;;;4958829;28;20569;-68
2023/06/11 00:56:33;;;;;;;6.83;3.33;;;20.50;56.70;;;;;;4959139;28;20209;-69
2023/06/11 00:58:59;;;;;;;3.20;2.80;;;20.30;57.80;;;;;;4959057;28;20243;-68
2023/06/11 01:01:29;;;;;;;3.03;2.73;;;20.30;58.20;;;;;;4957291;28;20236;-68
2023/06/11 01:03:56;;;;;;;3.67;3.27;;;20.30;58.50;;;;;;4953747;28;20206;-69
2023/06/11 01:06:22;;;;;;;5.30;3.57;;;20.20;57.40;;;;;;4954922;28;20208;-69
2023/06/11 01:08:53;;;;;;;3.90;2.60;;;20.10;58.00;;;;;;4958729;28;20213;-69
2023/06/11 01:11:21;;;;;;;3.50;2.50;;;20.10;57.80;;;;;;4958633;28;20807;-69
2023/06/11 01:13:47;;;;;;;8.03;2.90;;;19.90;57.70;;;;;;4958661;28;20231;-69
2023/06/11 01:16:35;;;;;;;2.80;2.60;;;19.80;57.90;;;;;;4957993;28;20207;-69
2023/06/11 01:19:37;;;;;;;8.80;3.20;;;19.80;58.50;;;;;;4945703;28;20335;-69
2023/06/11 01:22:29;;;;;;;4.20;3.00;;;19.80;58.40;;;;;;4958114;28;20296;-70
2023/06/11 01:25:15;;;;;;;3.20;2.60;;;19.80;58.30;;;;;;4958497;28;20232;-70
2023/06/11 01:27:43;;;;;;;3.23;2.93;;;19.80;58.70;;;;;;4940924;28;20762;-69
2023/06/11 01:30:17;;;;;;;3.37;2.93;;;19.70;59.40;;;;;;4958102;28;20204;-70
2023/06/11 01:32:47;;;;;;;4.23;2.30;;;19.80;59.60;;;;;;4957439;28;20303;-69
2023/06/11 01:35:14;;;;;;;2.80;2.47;;;19.80;58.90;;;;;;4957550;28;20795;-69
2023/06/11 01:37:45;;;;;;;4.50;3.30;;;19.80;59.50;;;;;;4958217;28;20201;-70
2023/06/11 01:40:14;;;;;;;3.90;2.63;;;19.70;58.70;;;;;;4957241;28;20323;-70
2023/06/11 01:42:40;;;;;;;3.57;2.87;;;19.80;59.00;;;;;;4957939;28;20429;-70
2023/06/11 01:45:07;;;;;;;3.80;2.40;;;19.70;59.00;;;;;;4957957;28;20192;-70
2023/06/11 01:47:33;;;;;;;2.80;2.60;;;19.60;59.00;;;;;;4957849;28;20212;-70
2023/06/11 01:49:58;;;;;;;3.37;2.97;;;19.60;59.30;;;;;;4950710;28;20285;-69
2023/06/11 01:52:24;;;;;;;2.87;2.60;;;19.50;59.50;;;;;;4948657;28;20228;-69
2023/06/11 01:54:51;;;;;;;5.43;2.93;;;19.50;60.10;;;;;;4957852;28;20738;-69
2023/06/11 01:57:16;;;;;;;4.70;2.53;;;19.40;59.60;;;;;;4957908;28;20291;-70
2023/06/11 01:59:42;;;;;;;6.47;3.20;;;19.40;59.60;;;;;;4954893;28;20371;-69
2023/06/11 02:02:08;;;;;;;4.13;2.90;;;19.30;59.70;;;;;;4953831;28;20686;-69
2023/06/11 02:04:33;;;;;;;5.67;3.53;;;19.40;60.20;;;;;;4952745;28;20207;-69
2023/06/11 02:07:01;;;;;;;7.17;3.07;;;19.20;61.00;;;;;;4952420;28;20669;-69
2023/06/11 02:09:26;;;;;;;5.40;3.07;;;19.20;60.10;;;;;;4956306;28;20221;-68
2023/06/11 02:11:52;;;;;;;3.43;2.67;;;19.20;60.60;;;;;;4958037;28;20674;-70
2023/06/11 02:14:17;;;;;;;2.83;2.63;;;19.10;60.30;;;;;;4943559;28;20273;-69
2023/06/11 02:16:43;;;;;;;3.33;3.03;;;19.10;61.30;;;;;;4957926;28;20212;-68
2023/06/11 02:19:08;;;;;;;3.37;2.60;;;19.00;60.90;;;;;;4954594;28;20806;-69
2023/06/11 02:21:33;;;;;;;2.40;2.23;;;19.00;61.70;;;;;;4950727;28;20211;-69
2023/06/11 02:23:59;;;;;;;6.67;3.10;;;18.80;61.90;;;;;;4951469;28;20224;-70
2023/06/11 02:26:25;;;;;;;3.63;3.03;;;18.70;62.30;;;;;;4957522;28;20783;-69
2023/06/11 02:28:51;;;;;;;4.83;2.60;;;18.70;61.90;;;;;;4956790;28;20212;-71
2023/06/11 02:31:17;;;;;;;3.70;2.90;;;18.70;61.90;;;;;;4958939;28;20207;-70
2023/06/11 02:33:42;;;;;;;3.27;2.80;;;18.50;62.70;;;;;;4951344;28;20220;-72
2023/06/11 02:36:08;;;;;;;4.90;2.80;;;18.50;63.00;;;;;;4948919;28;20203;-70
2023/06/11 02:38:33;;;;;;;7.53;2.80;;;18.70;63.60;;;;;;4944410;28;20572;-68
2023/06/11 02:40:59;;;;;;;3.87;2.67;;;18.80;63.70;;;;;;4943774;28;20288;-68
2023/06/11 02:43:24;;;;;;;3.53;2.60;;;18.80;62.30;;;;;;4940020;28;20202;-69
2023/06/11 02:45:50;;;;;;;4.27;3.40;;;18.60;62.80;;;;;;4950432;28;20780;-69
2023/06/11 02:48:15;;;;;;;4.53;3.07;;;18.40;63.90;;;;;;4946423;28;20218;-69
2023/06/11 02:50:41;;;;;;;7.57;3.23;;;18.20;64.90;;;;;;4950023;28;20212;-69
2023/06/11 02:53:06;;;;;;;3.33;2.70;;;18.10;64.90;;;;;;4943871;28;20575;-70
2023/06/11 02:55:32;;;;;;;3.97;3.40;;;18.20;66.40;;;;;;4942962;28;20209;-69
2023/06/11 02:57:57;;;;;;;5.97;3.00;;;18.00;65.50;;;;;;4948103;28;20245;-70
2023/06/11 03:00:23;;;;;;;3.63;3.10;;;17.90;66.10;;;;;;4947810;28;20714;-70
2023/06/11 03:02:48;;;;;;;3.60;2.67;;;17.80;66.50;;;;;;4950099;28;20266;-70
2023/06/11 03:05:14;;;;;;;4.63;3.17;;;17.70;66.60;;;;;;4941617;28;20244;-69
2023/06/11 03:07:39;;;;;;;4.97;3.10;;;17.60;67.10;;;;;;4951469;28;20193;-68
2023/06/11 03:10:05;;;;;;;2.77;2.47;;;17.60;67.00;;;;;;4945545;28;20209;-68
2023/06/11 03:12:30;;;;;;;2.93;2.67;;;17.50;67.60;;;;;;4946516;28;20219;-68
2023/06/11 03:14:56;;;;;;;5.60;2.93;;;17.40;67.80;;;;;;4947171;28;20705;-70
2023/06/11 03:17:21;;;;;;;7.63;2.87;;;17.30;68.00;;;;;;4949157;28;20209;-69
2023/06/11 03:19:47;;;;;;;2.73;2.50;;;17.30;68.10;;;;;;4946406;28;20224;-69
2023/06/11 03:22:12;;;;;;;3.13;2.87;;;17.30;67.90;;;;;;4946751;28;20718;-69
2023/06/11 03:24:38;;;;;;;4.40;2.60;;;17.40;68.10;;;;;;4950383;28;20274;-70
2023/06/11 03:27:05;;;;;;;7.33;3.30;;;17.40;68.00;;;;;;4947876;28;20335;-70
2023/06/11 03:29:30;;;;;;;7.90;2.73;;;17.30;68.10;;;;;;4951544;28;20675;-69
2023/06/11 03:31:56;;;;;;;3.33;2.33;;;17.40;68.10;;;;;;4954722;28;20195;-69
2023/06/11 03:34:22;;;;;;;4.10;2.40;;;17.50;67.90;;;;;;4948193;28;20256;-70
2023/06/11 03:36:47;;;;;;;4.60;2.70;;;17.60;68.10;;;;;;4953665;28;20207;-69
2023/06/11 03:39:13;;;;;;;2.93;2.43;;;17.50;68.10;;;;;;4949747;28;20224;-69
2023/06/11 03:41:38;;;;;;;6.63;3.13;;;17.20;68.00;;;;;;4949330;28;20207;-69
2023/06/11 03:44:04;;;;;;;4.63;2.40;;;17.30;68.10;;;;;;4944974;28;20204;-69
2023/06/11 03:46:29;;;;;;;5.13;2.37;;;17.30;67.90;;;;;;4949761;28;20696;-70
2023/06/11 03:48:57;;;;;;;4.10;2.83;;;17.40;68.00;;;;;;4951994;28;20569;-69
2023/06/11 03:51:22;;;;;;;2.70;2.23;;;17.60;67.70;;;;;;4951550;28;20340;-69
2023/06/11 03:53:48;;;;;;;5.70;3.40;;;17.40;67.50;;;;;;4945847;28;20311;-69
2023/06/11 03:56:13;;;;;;;5.73;3.03;;;17.50;67.50;;;;;;4946897;28;20688;-70
2023/06/11 03:58:38;;;;;;;2.80;2.37;;;17.50;67.30;;;;;;4950698;28;20510;-70
2023/06/11 04:01:05;;;;;;;5.17;2.50;;;17.50;67.70;;;;;;4943372;28;20191;-70
2023/06/11 04:03:30;;;;;;;4.87;2.50;;;17.20;68.00;;;;;;4945060;28;20264;-70
2023/06/11 04:05:56;;;;;;;3.43;2.67;;;17.20;68.40;;;;;;4950896;28;20214;-70
2023/06/11 04:08:21;;;;;;;6.33;2.80;;;17.10;68.80;;;;;;4948779;28;20198;-69
2023/06/11 04:10:47;;;;;;;2.93;2.43;;;17.10;69.40;;;;;;4940530;28;20203;-70
2023/06/11 04:13:12;;;;;;;3.37;2.70;;;17.20;69.30;;;;;;4953384;28;20214;-70
2023/06/11 04:15:38;;;;;;;2.70;2.10;;;17.10;69.40;;;;;;4946506;28;20277;-69
2023/06/11 04:18:03;;;;;;;3.67;2.43;;;17.10;69.00;;;;;;4949719;28;20258;-69
2023/06/11 04:20:29;;;;;;;3.67;2.60;;;17.20;69.10;;;;;;4948164;28;20229;-70
2023/06/11 04:22:55;;;;;;;3.20;2.90;;;17.20;69.10;;;;;;4941617;28;20343;-70
2023/06/11 04:25:20;;;;;;;3.87;2.43;;;17.20;69.30;;;;;;4940966;28;20196;-69
2023/06/11 04:27:49;;;;;;;2.30;2.17;;;17.10;69.30;;;;;;4941297;28;20249;-69
2023/06/11 04:30:14;;;;;;;3.97;2.50;;;17.20;69.70;;;;;;4948877;28;20211;-71
2023/06/11 04:32:41;;;;;;;3.00;2.70;;;17.20;69.70;;;;;;4949404;28;20859;-71
2023/06/11 04:35:07;;;;;;;5.17;2.40;;;17.10;69.50;;;;;;4944164;28;20218;-70
2023/06/11 04:37:39;;;;;;;2.60;2.40;;;17.30;69.30;;;;;;4949726;28;20619;-70
2023/06/11 04:40:09;;;;;;;3.00;2.20;;;17.30;69.70;;;;;;4942612;28;20225;-70
2023/06/11 04:42:41;;;;;;;3.80;2.37;;;17.30;69.90;;;;;;4950574;28;20948;-70
2023/06/11 04:45:09;;;;;;;3.50;2.70;;;17.40;70.00;;;;;;4948589;28;20213;-70
2023/06/11 04:47:35;;;;;;;4.47;2.60;;;17.60;69.10;;;;;;4949469;28;20659;-71
2023/06/11 04:50:04;;;;;;;6.23;3.07;;;17.50;69.20;;;;;;4948916;28;20206;-69
2023/06/11 04:52:42;;;;;;;2.63;2.43;;;17.40;70.00;;;;;;4948173;28;20212;-70
2023/06/11 04:55:09;;;;;;;2.60;2.40;;;17.30;70.10;;;;;;4938874;28;20564;-70
2023/06/11 04:57:39;;;;;;;4.47;4.07;;;17.40;70.60;;;;;;4947648;28;20211;-70
2023/06/11 05:00:10;;;;;;;9.60;3.30;;;17.30;70.00;;;;;;4949409;28;20726;-72
2023/06/11 05:02:44;;;;;;;4.10;2.40;;;17.50;69.70;;;;;;4945001;28;20207;-73
2023/06/11 05:05:10;;;;;;;3.77;2.37;;;17.50;70.00;;;;;;4948953;28;20375;-70
2023/06/11 05:07:36;;;;;;;2.80;2.60;;;17.30;70.30;;;;;;4947256;28;20265;-72
2023/06/11 05:10:01;;;;;;;3.00;2.43;;;17.30;71.20;;;;;;4948619;28;20684;-69
2023/06/11 05:12:27;;;;;;;5.60;3.10;;;17.20;71.20;;;;;;4949369;28;20253;-70
2023/06/11 05:14:52;;;;;;;4.47;2.33;;;17.20;71.10;;;;;;4949381;28;20218;-73
2023/06/11 05:17:18;;;;;;;3.00;2.70;;;17.40;71.20;;;;;;4949443;28;20572;-72
2023/06/11 05:19:43;;;;;;;2.90;2.60;;;17.40;71.60;;;;;;4949106;28;20207;-71
2023/06/11 05:22:09;;;;;;;6.37;2.87;;;17.40;71.80;;;;;;4948724;28;20234;-72
2023/06/11 05:24:35;;;;;;;4.23;2.33;;;17.50;71.30;;;;;;4946839;28;20976;-72
2023/06/11 05:27:00;;;;;;;3.70;3.40;;;17.50;71.50;;;;;;4949085;28;20198;-69
2023/06/11 05:29:26;;;;;;;3.13;2.63;;;17.50;72.30;;;;;;4948592;28;20230;-69
2023/06/11 05:31:52;;;;;;;5.47;2.33;;;17.50;71.60;;;;;;4947856;28;20709;-70
2023/06/11 05:34:18;;;;;;;4.23;2.47;;;17.70;71.60;;;;;;4948329;28;20219;-69
2023/06/11 05:36:45;;;;;;;6.03;2.87;;;17.70;71.60;;;;;;4946424;28;20365;-70
2023/06/11 05:39:12;;;;;;;4.47;2.40;;;17.80;71.90;;;;;;4949085;28;20223;-68
2023/06/11 05:41:38;;;;;;;5.50;2.93;;;17.70;71.90;;;;;;4948793;28;20291;-69
2023/06/11 05:44:04;;;;;;;4.57;2.60;;;17.80;72.00;;;;;;4949007;28;20300;-69
2023/06/11 05:46:29;;;;;;;2.60;2.40;;;18.00;71.70;;;;;;4948346;28;20215;-70
2023/06/11 05:48:55;;;;;;;4.93;2.50;;;18.00;71.30;;;;;;4948381;28;20261;-70
2023/06/11 05:51:20;;;;;;;8.03;5.50;;;18.10;71.60;;;;;;4947297;28;20196;-71
2023/06/11 05:53:46;;;;;;;5.77;2.60;;;18.20;70.90;;;;;;4947968;28;20820;-70
2023/06/11 05:56:12;;;;;;;7.13;3.10;;;18.30;71.60;;;;;;4947916;28;20696;-70
2023/06/11 05:58:38;;;;;;;3.77;2.67;;;18.50;69.90;;;;;;4949944;28;20199;-72
2023/06/11 06:01:06;;;;;;;4.27;2.47;;;18.60;69.30;;;;;;4942447;28;20423;-71
2023/06/11 06:03:33;;;;;;;4.13;2.87;;;18.70;69.40;;;;;;4949247;28;20211;-70
2023/06/11 06:06:00;;;;;;;7.37;3.17;;;18.80;69.80;;;;;;4948507;28;20549;-70
2023/06/11 06:08:29;;;;;;;4.93;2.17;;;18.90;69.30;;;;;;4948780;28;20364;-70
2023/06/11 06:10:55;;;;;;;5.83;3.10;;;18.90;68.90;;;;;;4946077;28;20909;-70
2023/06/11 06:13:24;;;;;;;4.80;2.87;;;18.90;69.00;;;;;;4947513;28;20577;-70
2023/06/11 06:15:50;;;;;;;5.37;2.57;;;19.00;69.60;;;;;;4947513;28;20683;-70
2023/06/11 06:18:16;;;;;;;3.87;2.83;;;19.00;68.30;;;;;;4946814;28;20192;-70
2023/06/11 06:20:42;;;;;;;2.73;2.53;;;19.10;68.90;;;;;;4946986;28;20726;-70
2023/06/11 06:23:09;;;;;;;4.93;3.23;;;19.20;68.40;;;;;;4945512;28;20272;-70
2023/06/11 06:25:38;;;;;;;4.83;2.77;;;19.20;68.10;;;;;;4949507;28;20717;-69
2023/06/11 06:28:06;;;;;;;2.87;2.30;;;19.00;70.10;;;;;;4948307;28;20205;-70
2023/06/11 06:30:32;;;;;;;3.13;2.87;;;19.00;70.00;;;;;;4933840;28;20215;-70
2023/06/11 06:32:58;;;;;;;6.17;2.90;;;19.00;70.30;;;;;;4947177;28;20214;-69
2023/06/11 06:35:24;;;;;;;4.07;2.70;;;18.90;69.60;;;;;;4946900;28;20220;-70
2023/06/11 06:37:49;;;;;;;2.73;2.50;;;18.90;71.00;;;;;;4946740;28;20201;-69
2023/06/11 06:40:15;;;;;;;10.80;3.10;;;18.90;70.10;;;;;;4947635;28;20222;-70
2023/06/11 06:42:41;;;;;;;4.80;2.50;;;19.00;69.90;;;;;;4942023;28;20212;-70
2023/06/11 06:45:07;;;;;;;4.90;3.13;;;19.20;68.80;;;;;;4948942;28;20204;-70
2023/06/11 06:47:32;;;;;;;4.10;2.87;;;19.40;68.20;;;;;;4947751;28;20250;-70
2023/06/11 06:49:58;;;;;;;6.60;2.73;;;19.50;68.20;;;;;;4948977;28;20567;-70
2023/06/11 06:52:23;;;;;;;2.93;2.50;;;19.20;69.30;;;;;;4948422;28;20561;-69
2023/06/11 06:54:51;;;;;;;3.47;2.77;;;19.20;69.80;;;;;;4948376;28;20352;-70
2023/06/11 06:57:17;;;;;;;3.63;2.97;;;19.30;70.00;;;;;;4943182;28;20200;-70
2023/06/11 06:59:43;;;;;;;2.93;2.70;;;19.40;70.00;;;;;;4946595;28;20221;-70
2023/06/11 07:02:09;;;;;;;3.00;2.73;;;19.40;69.60;;;;;;4947863;28;20203;-70
2023/06/11 07:04:35;;;;;;;4.00;3.33;;;19.60;70.10;;;;;;4947345;28;20224;-70
2023/06/11 07:07:00;;;;;;;6.30;3.00;;;19.60;69.90;;;;;;4948339;28;20197;-70
2023/06/11 07:09:26;;;;;;;3.97;2.57;;;19.70;71.00;;;;;;4945664;28;20213;-71
2023/06/11 07:11:52;;;;;;;6.50;3.10;;;19.70;69.50;;;;;;4948288;28;20220;-70
2023/06/11 07:14:18;;;;;;;3.67;2.87;;;19.90;69.00;;;;;;4947993;28;20237;-70
2023/06/11 07:16:44;;;;;;;3.10;2.80;;;19.90;68.20;;;;;;4949253;28;20236;-70
2023/06/11 07:19:10;;;;;;;4.97;3.80;;;19.80;70.10;;;;;;4946361;28;20232;-70
2023/06/11 07:21:36;;;;;;;5.93;3.57;;;19.80;70.00;;;;;;4945888;28;20408;-77
2023/06/11 07:24:04;;;;;;;3.57;3.27;;;19.80;69.80;;;;;;4942524;28;20228;-71
2023/06/11 07:26:30;;;;;;;6.57;2.93;;;19.80;69.90;;;;;;4948122;28;20216;-71
2023/06/11 07:28:56;;;;;;;4.53;3.47;;;19.90;69.40;;;;;;4947598;28;20730;-70
2023/06/11 07:31:21;;;;;;;10.37;3.30;;;19.90;69.90;;;;;;4950227;28;20648;-71
2023/06/11 07:33:47;;;;;;;7.20;3.10;;;20.00;71.50;;;;;;4949137;28;20223;-70
2023/06/11 07:36:13;;;;;;;3.67;3.30;;;20.00;69.50;;;;;;4951880;28;20220;-73
2023/06/11 07:38:38;;;;;;;5.17;3.27;;;19.90;70.40;;;;;;4954157;28;20197;-71
2023/06/11 07:41:04;;;;;;;4.80;2.93;;;20.10;70.50;;;;;;4949585;28;20372;-71
2023/06/11 07:43:29;;;;;;;3.30;2.93;;;20.20;70.50;;;;;;4951435;28;20431;-71
2023/06/11 07:45:55;;;;;;;4.17;2.67;;;20.20;70.70;;;;;;4952513;28;20197;-71
2023/06/11 07:48:20;;;;;;;2.97;2.77;;;20.30;70.40;;;;;;4953201;28;20680;-72
2023/06/11 07:50:48;;;;;;;3.80;3.13;;;20.40;70.70;;;;;;4960039;28;20208;-71
2023/06/11 07:53:14;;;;;;;7.57;2.43;;;20.50;70.00;;;;;;4960351;28;20224;-71
2023/06/11 07:55:41;;;;;;;4.60;3.50;;;20.60;69.30;;;;;;4960495;28;20567;-73
2023/06/11 07:58:07;;;;;;;3.87;3.37;;;20.70;69.60;;;;;;4960105;28;20208;-72
2023/06/11 08:00:33;;;;;;;3.93;3.03;;;20.80;68.00;;;;;;4958081;28;20609;-72
2023/06/11 08:02:58;;;;;;;3.20;2.90;;;20.80;69.50;;;;;;4954271;28;20209;-70
2023/06/11 08:05:23;;;;;;;7.40;3.10;;;20.80;69.40;;;;;;4960432;28;20492;-70
2023/06/11 08:07:49;;;;;;;3.40;2.80;;;20.90;69.10;;;;;;4957879;28;20295;-71
2023/06/11 08:10:15;;;;;;;3.73;2.83;;;21.00;68.80;;;;;;4958209;28;20276;-70
2023/06/11 08:12:41;;;;;;;6.10;3.27;;;21.10;69.70;;;;;;4956267;28;20209;-70
2023/06/11 08:15:07;;;;;;;4.47;3.03;;;21.10;69.40;;;;;;4953899;28;20212;-70
2023/06/11 08:17:32;;;;;;;4.93;3.73;;;21.00;69.40;;;;;;4959554;28;20990;-72
2023/06/11 08:19:59;;;;;;;5.17;3.53;;;21.10;69.60;;;;;;4959515;28;20268;-70
2023/06/11 08:22:25;;;;;;;4.80;3.00;;;21.20;69.90;;;;;;4959421;28;20623;-71
2023/06/11 08:24:50;;;;;;;4.70;2.67;;;21.30;69.60;;;;;;4959249;28;20281;-69
2023/06/11 08:27:16;;;;;;;4.17;3.77;;;21.50;70.10;;;;;;4958935;28;20197;-70
2023/06/11 08:29:41;;;;;;;4.33;3.03;;;21.60;69.80;;;;;;4957409;28;20225;-69
2023/06/11 08:32:07;;;;;;;4.97;3.37;;;21.70;69.50;;;;;;4958763;28;20252;-71
2023/06/11 08:34:32;;;;;;;4.00;2.80;;;21.80;70.20;;;;;;4959423;28;20201;-70
2023/06/11 08:36:58;;;;;;;3.00;2.80;;;21.80;69.60;;;;;;4956872;28;20209;-70
2023/06/11 08:39:23;;;;;;;3.47;3.13;;;21.90;68.60;;;;;;4958870;28;20252;-70
2023/06/11 08:41:49;;;;;;;3.70;3.00;;;22.20;67.70;;;;;;4957144;28;20541;-71
2023/06/11 08:44:15;;;;;;;4.37;3.43;;;22.20;67.30;;;;;;4959369;28;20702;-70
2023/06/11 08:46:44;;;;;;;5.13;3.03;;;22.10;66.90;;;;;;4959654;28;20746;-70
2023/06/11 08:49:18;;;;;;;4.53;3.13;;;22.10;66.90;;;;;;4959954;28;20296;-70
2023/06/11 08:51:44;;;;;;;4.37;3.70;;;22.10;66.70;;;;;;4959438;28;20221;-70
2023/06/11 08:54:11;;;;;;;5.27;3.53;;;22.10;67.90;;;;;;4959477;28;20240;-71
2023/06/11 08:56:37;;;;;;;4.37;3.37;;;22.20;67.70;;;;;;4959276;28;20260;-71
2023/06/11 08:59:04;;;;;;;3.97;3.63;;;22.30;68.30;;;;;;4959029;28;20206;-71
2023/06/11 09:01:31;;;;;;;6.30;3.60;;;22.40;67.60;;;;;;4956413;28;20213;-70
2023/06/11 09:03:56;;;;;;;4.43;3.93;;;22.50;67.50;;;;;;4948749;28;20212;-71
2023/06/11 09:06:22;;;;;;;4.33;4.03;;;22.60;66.30;;;;;;4948559;28;20210;-72
2023/06/11 09:09:03;;;;;;;7.37;3.13;;;22.70;66.60;;;;;;4952946;28;20205;-73
2023/06/11 09:11:47;;;;;;;3.95;3.35;;;22.70;66.30;;;;;;4958785;28;20555;-71
2023/06/11 09:14:12;;;;;;;5.80;4.60;;;22.80;67.10;;;;;;4959496;28;20196;-71
2023/06/11 09:16:40;;;;;;;7.17;3.47;;;22.90;65.30;;;;;;4959012;28;20320;-70
2023/06/11 09:19:05;;;;;;;5.63;3.57;;;23.00;66.00;;;;;;4958725;28;20561;-72
2023/06/11 09:21:31;;;;;;;8.50;3.90;;;23.00;65.60;;;;;;4957334;28;20566;-73
2023/06/11 09:24:09;;;;;;;3.70;3.40;;;23.10;65.10;;;;;;4957952;28;20251;-71
2023/06/11 09:26:34;;;;;;;7.80;4.35;;;23.20;66.30;;;;;;4958399;28;20461;-71
2023/06/11 09:29:00;;;;;;;4.47;3.30;;;23.20;64.80;;;;;;4959005;28;20193;-70
2023/06/11 09:31:26;;;;;;;5.57;4.60;;;23.30;64.90;;;;;;4958053;28;20286;-71
2023/06/11 09:33:53;;;;;;;3.47;3.17;;;23.40;65.00;;;;;;4957887;28;20246;-72
2023/06/11 09:36:18;;;;;;;5.70;4.00;;;23.40;64.00;;;;;;4958558;28;20214;-72
2023/06/11 09:38:48;;;;;;;4.90;3.78;;;23.40;65.00;;;;;;4958761;28;20543;-73
2023/06/11 09:41:13;;;;;;;5.63;3.80;;;23.60;64.30;;;;;;4957619;28;20715;-68
2023/06/11 09:43:39;;;;;;;5.47;4.32;;;23.70;64.40;;;;;;4956165;28;20206;-69
2023/06/11 09:46:06;;;;;;;5.47;4.10;;;23.80;63.60;;;;;;4957990;28;20547;-73
2023/06/11 09:48:32;;;;;;;11.98;4.65;;;23.80;65.70;;;;;;4958284;28;20221;-72
2023/06/11 09:51:02;;;;;;;4.07;3.58;;;23.80;64.50;;;;;;4958527;28;20205;-72
2023/06/11 09:53:28;;;;;;;5.55;3.95;;;24.00;64.80;;;;;;4955933;28;20537;-69
2023/06/11 09:55:53;;;;;;;4.63;3.97;;;24.00;64.70;;;;;;4957944;28;20247;-70
2023/06/11 09:58:22;;;;;;;7.75;4.63;;;24.00;64.20;;;;;;4958015;28;20212;-72
2023/06/11 10:00:58;;;;;;;6.18;3.53;;;24.30;62.00;;;;;;4957504;28;20818;-71
2023/06/11 10:03:24;;;;;;;5.00;3.55;;;24.10;65.00;;;;;;4950780;28;20205;-70
2023/06/11 10:05:49;;;;;;;8.40;4.25;;;24.20;64.40;;;;;;4940213;28;20217;-73
2023/06/11 10:08:22;;;;;;;5.05;4.13;;;24.30;63.40;;;;;;4958119;28;20292;-71
2023/06/11 10:10:53;;;;;;;3.83;3.42;;;24.30;62.40;;;;;;4956061;28;20205;-72
2023/06/11 10:13:29;;;;;;;7.50;4.38;;;24.30;63.00;;;;;;4957857;28;20206;-70
2023/06/11 10:16:00;;;;;;;8.43;4.80;;;24.40;64.30;;;;;;4958154;28;20756;-70
2023/06/11 10:18:26;;;;;;;8.13;5.00;;;24.70;59.90;;;;;;4954135;28;20261;-69
2023/06/11 10:21:00;;;;;;;4.03;3.75;;;24.70;60.90;;;;;;4943693;28;20249;-70
2023/06/11 10:23:39;;;;;;;4.07;3.63;;;24.90;60.50;;;;;;4941285;28;20222;-71
2023/06/11 10:26:05;;;;;;;9.98;3.90;;;24.90;60.60;;;;;;4941899;28;20316;-71
2023/06/11 10:28:48;;;;;;;5.55;4.90;;;25.10;61.10;;;;;;4940105;28;21070;-71
2023/06/11 10:31:25;;;;;;;6.20;4.43;;;25.20;61.00;;;;;;4942025;28;20206;-70
2023/06/11 10:33:50;;;;;;;4.95;4.40;;;25.20;57.90;;;;;;4938404;28;20751;-70
2023/06/11 10:36:24;;;;;;;4.95;4.13;;;25.10;58.30;;;;;;4940401;28;20195;-70
2023/06/11 10:38:51;;;;;;;5.68;4.10;;;25.10;59.80;;;;;;4939552;28;20577;-70
2023/06/11 10:41:27;;;;;;;4.85;3.75;;;25.10;61.00;;;;;;4942145;28;20257;-70
2023/06/11 10:43:55;;;;;;;6.82;4.55;;;25.20;60.50;;;;;;4937425;28;20221;-70
2023/06/11 10:46:20;;;;;;;6.35;4.95;;;25.50;57.90;;;;;;4936779;28;20608;-71
2023/06/11 10:48:51;;;;;;;5.05;4.55;;;25.70;58.10;;;;;;4948354;28;20209;-71
2023/06/11 10:51:16;;;;;;;12.88;3.88;;;25.70;57.40;;;;;;4946770;28;20203;-72
2023/06/11 10:53:42;;;;;;;7.55;4.95;;;25.80;58.80;;;;;;4945052;28;20345;-72
2023/06/11 10:56:09;;;;;;;4.88;4.28;;;25.70;59.10;;;;;;4947329;28;20196;-70
2023/06/11 10:58:36;;;;;;;4.85;4.47;;;25.90;60.00;;;;;;4947373;28;20205;-73
2023/06/11 11:01:04;;;;;;;5.82;5.10;;;26.00;59.50;;;;;;4947260;28;20288;-73
2023/06/11 11:03:31;;;;;;;4.93;4.10;;;26.20;58.10;;;;;;4947977;28;20317;-70
2023/06/11 11:05:57;;;;;;;4.53;4.15;;;26.10;58.10;;;;;;4950135;28;20705;-72
2023/06/11 11:08:23;;;;;;;5.45;4.95;;;26.40;57.40;;;;;;4951766;28;20208;-70
2023/06/11 11:11:01;;;;;;;5.30;4.18;;;26.60;56.00;;;;;;4950609;28;20204;-72
2023/06/11 11:13:30;;;;;;;8.75;5.47;;;26.90;56.70;;;;;;4949269;28;20212;-72
2023/06/11 11:15:58;;;;;;;6.07;4.60;;;27.00;55.70;;;;;;4951011;28;20204;-72
2023/06/11 11:18:24;;;;;;;5.80;4.35;;;26.70;53.60;;;;;;4951843;28;20283;-74
2023/06/11 11:20:53;;;;;;;6.00;5.07;;;26.70;55.50;;;;;;4948909;28;20382;-73
2023/06/11 11:23:19;;;;;;;7.63;4.97;;;26.70;56.30;;;;;;4951355;28;21091;-71
2023/06/11 11:25:45;;;;;;;5.88;5.18;;;27.00;55.20;;;;;;4950063;28;20224;-72
2023/06/11 11:28:11;;;;;;;5.40;4.28;;;26.70;52.60;;;;;;4952455;28;20221;-71
2023/06/11 11:30:39;;;;;;;6.07;5.38;;;26.40;54.80;;;;;;4952819;28;21066;-70
2023/06/11 11:33:05;;;;;;;5.80;5.20;;;26.50;54.00;;;;;;4952082;28;21119;-69
2023/06/11 11:35:30;;;;;;;6.13;5.13;;;26.80;55.10;;;;;;4950117;28;20216;-71
2023/06/11 11:37:56;;;;;;;8.40;4.88;;;26.90;54.30;;;;;;4951380;28;20197;-72
2023/06/11 11:40:22;;;;;;;5.40;4.65;;;27.30;53.00;;;;;;4951527;28;20312;-71
2023/06/11 11:42:48;;;;;;;5.30;4.80;;;27.10;54.60;;;;;;4951265;28;20196;-70
2023/06/11 11:45:15;;;;;;;5.68;5.18;;;27.20;54.00;;;;;;4951283;28;20667;-72
2023/06/11 11:47:50;;;;;;;5.07;4.70;;;27.30;54.60;;;;;;4950859;28;20303;-71
2023/06/11 11:50:25;;;;;;;5.72;5.13;;;27.30;54.50;;;;;;4952291;28;21008;-71
2023/06/11 11:53:08;;;;;;;8.05;6.03;;;27.20;53.60;;;;;;4949512;28;20229;-73
2023/06/11 11:55:36;;;;;;;5.35;4.95;;;27.40;53.70;;;;;;4951493;28;20197;-74
2023/06/11 11:58:09;;;;;;;5.82;5.30;;;27.70;51.30;;;;;;4948999;28;20253;-71
2023/06/11 12:00:37;;;;;;;5.93;5.35;;;27.40;51.70;;;;;;4953012;28;20224;-72
2023/06/11 12:03:08;;;;;;;5.47;5.00;;;27.70;53.30;;;;;;4948865;28;20210;-73
2023/06/11 12:05:35;;;;;;;6.05;5.15;;;27.70;53.40;;;;;;4948018;28;20205;-72
2023/06/11 12:08:00;;;;;;;5.82;4.95;;;27.40;51.90;;;;;;4950278;28;20201;-71
2023/06/11 12:10:26;;;;;;;5.45;4.95;;;27.40;51.70;;;;;;4952250;28;20205;-74
2023/06/11 12:12:52;;;;;;;8.82;5.93;;;27.70;52.20;;;;;;4950679;28;20198;-74
2023/06/11 12:15:18;;;;;;;6.75;6.05;;;28.20;51.10;;;;;;4950589;28;20257;-74
2023/06/11 12:17:44;;;;;;;7.07;5.20;;;28.40;51.20;;;;;;4949090;28;20769;-75
2023/06/11 12:20:11;;;;;;;7.18;5.97;;;28.60;51.20;;;;;;4933979;28;20214;-76
2023/06/11 12:22:37;;;;;;;5.55;5.05;;;28.50;51.70;;;;;;4954015;28;20210;-74
2023/06/11 12:25:02;;;;;;;7.90;5.57;;;28.30;51.00;;;;;;4948624;28;20230;-74
2023/06/11 12:27:28;;;;;;;8.30;5.32;;;28.00;52.10;;;;;;4951133;28;20703;-75
2023/06/11 12:29:53;;;;;;;7.85;5.40;;;28.30;52.00;;;;;;4950795;28;20208;-76
2023/06/11 12:32:24;;;;;;;5.50;5.03;;;28.50;51.70;;;;;;4950244;28;20200;-74
2023/06/11 12:34:49;;;;;;;5.90;5.40;;;29.00;52.00;;;;;;4951249;28;20237;-76
2023/06/11 12:37:16;;;;;;;7.20;5.70;;;29.40;51.40;;;;;;4948810;28;20897;-75
2023/06/11 12:39:43;;;;;;;13.48;7.32;;;29.50;51.10;;;;;;4950576;28;20289;-75
2023/06/11 12:42:10;;;;;;;5.95;5.50;;;29.90;50.80;;;;;;4948407;28;20245;-75
2023/06/11 12:44:36;;;;;;;8.40;5.13;;;30.30;49.10;;;;;;4951017;28;20210;-76